createdAt,value
2024-02-20T00:00:32.418Z,992.59
2024-02-20T00:01:32.736Z,992.61
2024-02-20T00:02:32.396Z,992.59
2024-02-20T00:03:32.408Z,992.64
2024-02-20T00:04:32.443Z,992.61
2024-02-20T00:05:32.544Z,992.58
2024-02-20T00:06:32.386Z,992.61
2024-02-20T00:07:32.376Z,992.57
2024-02-20T00:08:32.357Z,992.56
2024-02-20T00:09:32.403Z,992.57
2024-02-20T00:10:32.347Z,992.60
2024-02-20T00:11:32.425Z,992.57
2024-02-20T00:12:32.341Z,992.59
2024-02-20T00:13:32.473Z,992.58
2024-02-20T00:14:32.270Z,992.57
2024-02-20T00:15:32.274Z,992.58
2024-02-20T00:16:32.404Z,992.57
2024-02-20T00:17:32.283Z,992.59
2024-02-20T00:18:32.332Z,992.60
2024-02-20T00:19:32.315Z,992.58
2024-02-20T00:20:32.287Z,992.58
2024-02-20T00:21:32.230Z,992.55
2024-02-20T00:22:32.255Z,992.56
2024-02-20T00:23:32.195Z,992.59
2024-02-20T00:24:32.207Z,992.61
2024-02-20T00:25:32.244Z,992.61
2024-02-20T00:26:32.152Z,992.63
2024-02-20T00:27:32.152Z,992.64
2024-02-20T00:28:32.185Z,992.66
2024-02-20T00:29:32.117Z,992.64
2024-02-20T00:30:32.119Z,992.63
2024-02-20T00:31:32.199Z,992.63
2024-02-20T00:32:32.147Z,992.63
2024-02-20T00:33:32.096Z,992.64
2024-02-20T00:34:32.172Z,992.64
2024-02-20T00:35:32.149Z,992.64
2024-02-20T00:36:32.025Z,992.66
2024-02-20T00:37:32.102Z,992.64
2024-02-20T00:38:32.006Z,992.65
2024-02-20T00:39:32.019Z,992.65
2024-02-20T00:40:32.012Z,992.69
2024-02-20T00:41:32.005Z,992.68
2024-02-20T00:42:31.961Z,992.73
2024-02-20T00:43:32.058Z,992.73
2024-02-20T00:44:31.975Z,992.77
2024-02-20T00:45:31.987Z,992.76
2024-02-20T00:46:32.072Z,992.77
2024-02-20T00:47:31.970Z,992.78
2024-02-20T00:48:31.932Z,992.82
2024-02-20T00:49:32.016Z,992.77
2024-02-20T00:50:31.887Z,992.73
2024-02-20T00:51:32.034Z,992.77
2024-02-20T00:52:31.956Z,992.76
2024-02-20T00:53:31.869Z,992.77
2024-02-20T00:54:31.847Z,992.78
2024-02-20T00:55:31.894Z,992.79
2024-02-20T00:56:31.845Z,992.72
2024-02-20T00:57:31.880Z,992.78
2024-02-20T00:58:31.844Z,992.78
2024-02-20T00:59:31.805Z,992.83
2024-02-20T01:00:31.829Z,992.87
2024-02-20T01:01:31.919Z,992.87
2024-02-20T01:02:31.760Z,992.86
2024-02-20T01:03:31.841Z,992.91
2024-02-20T01:04:31.795Z,992.91
2024-02-20T01:05:31.736Z,992.88
2024-02-20T01:06:31.839Z,992.91
2024-02-20T01:07:31.861Z,992.91
2024-02-20T01:08:31.686Z,992.98
2024-02-20T01:09:31.726Z,992.97
2024-02-20T01:10:31.806Z,992.94
2024-02-20T01:11:31.735Z,992.93
2024-02-20T01:12:31.641Z,992.93
2024-02-20T01:13:31.718Z,992.95
2024-02-20T01:14:31.802Z,993.01
2024-02-20T01:15:31.620Z,993.00
2024-02-20T01:16:31.757Z,993.00
2024-02-20T01:17:31.601Z,993.02
2024-02-20T01:18:31.626Z,993.01
2024-02-20T01:19:31.706Z,993.07
2024-02-20T01:20:31.601Z,993.05
2024-02-20T01:21:31.561Z,993.07
2024-02-20T01:22:31.621Z,993.15
2024-02-20T01:23:31.546Z,993.11
2024-02-20T01:24:31.504Z,993.11
2024-02-20T01:25:31.638Z,993.09
2024-02-20T01:26:31.611Z,993.11
2024-02-20T01:27:31.517Z,993.11
2024-02-20T01:28:31.518Z,993.09
2024-02-20T01:29:31.470Z,993.05
2024-02-20T01:30:31.439Z,993.09
2024-02-20T01:31:31.606Z,993.09
2024-02-20T01:32:31.470Z,993.12
2024-02-20T01:33:31.659Z,993.08
2024-02-20T01:34:31.484Z,993.10
2024-02-20T01:35:31.399Z,993.10
2024-02-20T01:36:31.376Z,993.08
2024-02-20T01:37:31.541Z,993.08
2024-02-20T01:38:31.381Z,993.07
2024-02-20T01:39:31.386Z,993.04
2024-02-20T01:40:31.450Z,993.06
2024-02-20T01:41:31.368Z,993.07
2024-02-20T01:42:31.308Z,993.09
2024-02-20T01:43:31.385Z,993.05
2024-02-20T01:44:31.323Z,993.03
2024-02-20T01:45:31.314Z,993.07
2024-02-20T01:46:31.347Z,993.07
2024-02-20T01:47:31.341Z,993.10
2024-02-20T01:48:31.423Z,993.11
2024-02-20T01:49:31.428Z,993.12
2024-02-20T01:50:31.313Z,993.15
2024-02-20T01:51:31.323Z,993.18
2024-02-20T01:52:31.312Z,993.15
2024-02-20T01:53:31.325Z,993.14
2024-02-20T01:54:31.189Z,993.17
2024-02-20T01:55:31.407Z,993.18
2024-02-20T01:56:31.195Z,993.18
2024-02-20T01:57:31.164Z,993.17
2024-02-20T01:58:31.987Z,993.15
2024-02-20T01:59:31.192Z,993.16
2024-02-20T02:00:31.179Z,993.15
2024-02-20T02:01:31.282Z,993.18
2024-02-20T02:02:31.154Z,993.20
2024-02-20T02:03:31.158Z,993.18
2024-02-20T02:04:31.338Z,993.18
2024-02-20T02:05:31.254Z,993.21
2024-02-20T02:06:31.128Z,993.18
2024-02-20T02:07:31.121Z,993.19
2024-02-20T02:08:31.088Z,993.22
2024-02-20T02:09:31.032Z,993.21
2024-02-20T02:10:31.054Z,993.21
2024-02-20T02:11:31.050Z,993.19
2024-02-20T02:12:30.997Z,993.20
2024-02-20T02:13:31.169Z,993.19
2024-02-20T02:14:31.016Z,993.24
2024-02-20T02:15:30.968Z,993.17
2024-02-20T02:16:31.008Z,993.25
2024-02-20T02:17:30.966Z,993.25
2024-02-20T02:18:31.040Z,993.25
2024-02-20T02:19:31.060Z,993.25
2024-02-20T02:20:30.938Z,993.25
2024-02-20T02:21:30.900Z,993.27
2024-02-20T02:22:31.041Z,993.26
2024-02-20T02:23:30.869Z,993.25
2024-02-20T02:24:30.852Z,993.26
2024-02-20T02:25:30.930Z,993.30
2024-02-20T02:26:30.890Z,993.30
2024-02-20T02:27:30.831Z,993.31
2024-02-20T02:28:31.003Z,993.29
2024-02-20T02:29:30.813Z,993.35
2024-02-20T02:30:30.803Z,993.34
2024-02-20T02:31:30.911Z,993.36
2024-02-20T02:32:30.846Z,993.39
2024-02-20T02:33:30.776Z,993.39
2024-02-20T02:34:30.994Z,993.37
2024-02-20T02:35:30.873Z,993.37
2024-02-20T02:36:30.722Z,993.39
2024-02-20T02:37:30.751Z,993.45
2024-02-20T02:38:30.726Z,993.42
2024-02-20T02:39:30.706Z,993.44
2024-02-20T02:40:30.819Z,993.42
2024-02-20T02:41:30.695Z,993.47
2024-02-20T02:42:30.657Z,993.44
2024-02-20T02:43:30.697Z,993.45
2024-02-20T02:44:30.673Z,993.47
2024-02-20T02:45:30.647Z,993.48
2024-02-20T02:46:30.709Z,993.44
2024-02-20T02:47:30.629Z,993.47
2024-02-20T02:48:30.622Z,993.48
2024-02-20T02:49:30.781Z,993.48
2024-02-20T02:50:30.628Z,993.50
2024-02-20T02:51:30.574Z,993.50
2024-02-20T02:52:30.626Z,993.52
2024-02-20T02:53:30.599Z,993.56
2024-02-20T02:54:30.548Z,993.60
2024-02-20T02:55:30.569Z,993.61
2024-02-20T02:56:30.563Z,993.60
2024-02-20T02:57:30.538Z,993.62
2024-02-20T02:58:30.516Z,993.62
2024-02-20T02:59:30.482Z,993.62
2024-02-20T03:00:30.471Z,993.65
2024-02-20T03:01:30.527Z,993.65
2024-02-20T03:02:30.447Z,993.65
2024-02-20T03:03:30.522Z,993.66
2024-02-20T03:04:30.466Z,993.67
2024-02-20T03:05:30.422Z,993.68
2024-02-20T03:06:30.459Z,993.71
2024-02-20T03:07:30.527Z,993.75
2024-02-20T03:08:30.373Z,993.73
2024-02-20T03:09:30.441Z,993.75
2024-02-20T03:10:30.397Z,993.76
2024-02-20T03:11:30.386Z,993.80
2024-02-20T03:12:32.798Z,993.78
2024-02-20T03:13:30.391Z,993.80
2024-02-20T03:14:30.311Z,993.81
2024-02-20T03:15:30.354Z,993.81
2024-02-20T03:16:30.347Z,993.83
2024-02-20T03:17:30.341Z,993.85
2024-02-20T03:18:30.284Z,993.84
2024-02-20T03:19:30.364Z,993.84
2024-02-20T03:20:30.238Z,993.85
2024-02-20T03:21:30.290Z,993.85
2024-02-20T03:22:30.349Z,993.86
2024-02-20T03:23:30.230Z,993.85
2024-02-20T03:24:30.215Z,993.88
2024-02-20T03:25:30.294Z,993.90
2024-02-20T03:26:30.312Z,993.92
2024-02-20T03:27:30.227Z,993.91
2024-02-20T03:28:30.186Z,993.92
2024-02-20T03:29:30.173Z,993.94
2024-02-20T03:30:30.124Z,993.98
2024-02-20T03:31:30.202Z,993.97
2024-02-20T03:32:30.143Z,993.97
2024-02-20T03:33:30.205Z,993.99
2024-02-20T03:34:30.170Z,993.99
2024-02-20T03:35:30.085Z,994.00
2024-02-20T03:36:30.097Z,994.01
2024-02-20T03:37:30.131Z,994.01
2024-02-20T03:38:30.060Z,994.02
2024-02-20T03:39:30.047Z,994.04
2024-02-20T03:40:30.080Z,994.04
2024-02-20T03:41:30.068Z,994.05
2024-02-20T03:42:30.000Z,994.08
2024-02-20T03:43:30.123Z,994.11
2024-02-20T03:44:30.012Z,994.10
2024-02-20T03:45:29.982Z,994.10
2024-02-20T03:46:29.971Z,994.11
2024-02-20T03:47:30.167Z,994.12
2024-02-20T03:48:30.110Z,994.13
2024-02-20T03:49:30.153Z,994.15
2024-02-20T03:50:29.963Z,994.15
2024-02-20T03:51:29.924Z,994.18
2024-02-20T03:52:30.009Z,994.18
2024-02-20T03:53:29.949Z,994.20
2024-02-20T03:54:29.877Z,994.22
2024-02-20T03:55:29.934Z,994.23
2024-02-20T03:56:29.849Z,994.25
2024-02-20T03:57:29.860Z,994.22
2024-02-20T03:58:29.859Z,994.23
2024-02-20T03:59:29.866Z,994.25
2024-02-20T04:00:29.848Z,994.25
2024-02-20T04:01:29.893Z,994.25
2024-02-20T04:02:29.778Z,994.27
2024-02-20T04:03:29.816Z,994.28
2024-02-20T04:04:29.771Z,994.31
2024-02-20T04:05:29.799Z,994.29
2024-02-20T04:06:29.878Z,994.31
2024-02-20T04:07:29.793Z,994.29
2024-02-20T04:08:29.713Z,994.31
2024-02-20T04:09:29.783Z,994.31
2024-02-20T04:10:29.773Z,994.32
2024-02-20T04:11:29.740Z,994.34
2024-02-20T04:12:29.693Z,994.33
2024-02-20T04:13:29.700Z,994.37
2024-02-20T04:14:29.702Z,994.38
2024-02-20T04:15:29.711Z,994.38
2024-02-20T04:16:29.695Z,994.40
2024-02-20T04:17:29.708Z,994.40
2024-02-20T04:18:29.730Z,994.44
2024-02-20T04:19:29.757Z,994.46
2024-02-20T04:20:29.696Z,994.47
2024-02-20T04:21:29.667Z,994.47
2024-02-20T04:22:29.628Z,994.48
2024-02-20T04:23:29.699Z,994.49
2024-02-20T04:24:29.551Z,994.51
2024-02-20T04:25:29.644Z,994.50
2024-02-20T04:26:29.605Z,994.50
2024-02-20T04:27:29.506Z,994.51
2024-02-20T04:28:29.653Z,994.52
2024-02-20T04:29:29.490Z,994.52
2024-02-20T04:30:29.484Z,994.56
2024-02-20T04:31:29.612Z,994.57
2024-02-20T04:32:29.492Z,994.60
2024-02-20T04:33:29.492Z,994.59
2024-02-20T04:34:29.495Z,994.63
2024-02-20T04:35:29.418Z,994.64
2024-02-20T04:36:29.510Z,994.64
2024-02-20T04:37:29.506Z,994.63
2024-02-20T04:38:29.425Z,994.65
2024-02-20T04:39:29.384Z,994.62
2024-02-20T04:40:29.463Z,994.62
2024-02-20T04:41:29.359Z,994.64
2024-02-20T04:42:29.356Z,994.66
2024-02-20T04:43:29.473Z,994.67
2024-02-20T04:44:29.487Z,994.65
2024-02-20T04:45:29.340Z,994.66
2024-02-20T04:46:29.410Z,994.62
2024-02-20T04:47:29.364Z,994.65
2024-02-20T04:48:29.367Z,994.65
2024-02-20T04:49:29.338Z,994.67
2024-02-20T04:50:29.270Z,994.70
2024-02-20T04:51:29.256Z,994.68
2024-02-20T04:52:29.278Z,994.72
2024-02-20T04:53:29.252Z,994.69
2024-02-20T04:54:29.233Z,994.69
2024-02-20T04:55:29.278Z,994.72
2024-02-20T04:56:29.234Z,994.73
2024-02-20T04:57:29.257Z,994.73
2024-02-20T04:58:29.253Z,994.74
2024-02-20T04:59:29.166Z,994.72
2024-02-20T05:00:29.174Z,994.72
2024-02-20T05:01:29.259Z,994.72
2024-02-20T05:02:29.144Z,994.72
2024-02-20T05:03:29.146Z,994.69
2024-02-20T05:04:29.281Z,994.71
2024-02-20T05:05:29.099Z,994.72
2024-02-20T05:06:29.123Z,994.73
2024-02-20T05:07:29.149Z,994.74
2024-02-20T05:08:29.098Z,994.72
2024-02-20T05:09:29.062Z,994.76
2024-02-20T05:10:29.124Z,994.74
2024-02-20T05:11:29.068Z,994.74
2024-02-20T05:12:29.042Z,994.78
2024-02-20T05:13:29.158Z,994.78
2024-02-20T05:14:29.013Z,994.77
2024-02-20T05:15:28.990Z,994.76
2024-02-20T05:16:29.110Z,994.77
2024-02-20T05:17:29.011Z,994.77
2024-02-20T05:18:29.024Z,994.81
2024-02-20T05:19:29.101Z,994.77
2024-02-20T05:20:35.479Z,994.79
2024-02-20T05:21:28.920Z,994.78
2024-02-20T05:22:29.063Z,994.78
2024-02-20T05:23:28.912Z,994.77
2024-02-20T05:24:28.904Z,994.77
2024-02-20T05:25:28.950Z,994.75
2024-02-20T05:26:28.878Z,994.74
2024-02-20T05:27:28.877Z,994.76
2024-02-20T05:28:28.906Z,994.78
2024-02-20T05:29:28.836Z,994.79
2024-02-20T05:30:28.840Z,994.82
2024-02-20T05:31:28.908Z,994.81
2024-02-20T05:32:28.923Z,994.80
2024-02-20T05:33:28.873Z,994.79
2024-02-20T05:34:28.834Z,994.80
2024-02-20T05:35:28.832Z,994.80
2024-02-20T05:36:28.767Z,994.84
2024-02-20T05:37:28.895Z,994.86
2024-02-20T05:38:28.762Z,994.89
2024-02-20T05:39:28.758Z,994.90
2024-02-20T05:40:28.864Z,994.88
2024-02-20T05:41:28.781Z,994.86
2024-02-20T05:42:28.745Z,994.85
2024-02-20T05:43:28.881Z,994.86
2024-02-20T05:44:28.750Z,994.87
2024-02-20T05:45:28.674Z,994.88
2024-02-20T05:46:28.881Z,994.88
2024-02-20T05:47:28.721Z,994.93
2024-02-20T05:48:28.835Z,994.93
2024-02-20T05:49:28.802Z,994.93
2024-02-20T05:50:28.893Z,994.91
2024-02-20T05:51:28.903Z,994.93
2024-02-20T05:52:28.679Z,994.94
2024-02-20T05:53:28.574Z,994.96
2024-02-20T05:54:28.576Z,994.98
2024-02-20T05:55:28.643Z,994.99
2024-02-20T05:56:28.575Z,995.00
2024-02-20T05:57:28.536Z,995.02
2024-02-20T05:58:28.596Z,995.02
2024-02-20T05:59:28.508Z,995.02
2024-02-20T06:00:28.532Z,995.00
2024-02-20T06:01:28.605Z,995.00
2024-02-20T06:02:30.918Z,995.00
2024-02-20T06:03:28.428Z,995.01
2024-02-20T06:04:28.516Z,995.01
2024-02-20T06:05:28.605Z,995.03
2024-02-20T06:06:28.483Z,995.05
2024-02-20T06:07:28.410Z,995.06
2024-02-20T06:08:28.435Z,995.07
2024-02-20T06:09:28.360Z,995.09
2024-02-20T06:10:28.457Z,995.07
2024-02-20T06:11:28.417Z,995.08
2024-02-20T06:12:28.398Z,995.08
2024-02-20T06:13:28.358Z,995.09
2024-02-20T06:14:28.317Z,995.08
2024-02-20T06:15:28.316Z,995.11
2024-02-20T06:16:28.513Z,995.13
2024-02-20T06:17:28.323Z,995.15
2024-02-20T06:18:28.396Z,995.17
2024-02-20T06:19:28.431Z,995.19
2024-02-20T06:20:28.241Z,995.22
2024-02-20T06:21:28.229Z,995.20
2024-02-20T06:22:28.248Z,995.22
2024-02-20T06:23:28.232Z,995.23
2024-02-20T06:24:28.252Z,995.22
2024-02-20T06:25:28.232Z,995.22
2024-02-20T06:26:28.188Z,995.22
2024-02-20T06:27:28.200Z,995.22
2024-02-20T06:28:28.179Z,995.23
2024-02-20T06:29:28.143Z,995.22
2024-02-20T06:30:28.193Z,995.24
2024-02-20T06:31:28.187Z,995.24
2024-02-20T06:32:29.551Z,995.25
2024-02-20T06:33:28.296Z,995.27
2024-02-20T06:34:28.457Z,995.27
2024-02-20T06:35:28.135Z,995.29
2024-02-20T06:36:28.117Z,995.32
2024-02-20T06:37:28.104Z,995.33
2024-02-20T06:38:28.052Z,995.37
2024-02-20T06:39:28.027Z,995.36
2024-02-20T06:40:28.102Z,995.40
2024-02-20T06:41:28.012Z,995.42
2024-02-20T06:42:28.083Z,995.39
2024-02-20T06:43:28.039Z,995.38
2024-02-20T06:44:28.004Z,995.40
2024-02-20T06:45:27.999Z,995.41
2024-02-20T06:46:28.034Z,995.44
2024-02-20T06:47:27.999Z,995.45
2024-02-20T06:48:28.056Z,995.46
2024-02-20T06:49:28.163Z,995.44
2024-02-20T06:50:27.939Z,995.47
2024-02-20T06:51:27.900Z,995.47
2024-02-20T06:52:27.940Z,995.43
2024-02-20T06:53:27.937Z,995.46
2024-02-20T06:54:27.926Z,995.46
2024-02-20T06:55:27.940Z,995.47
2024-02-20T06:56:27.856Z,995.46
2024-02-20T06:57:27.886Z,995.48
2024-02-20T06:58:27.932Z,995.50
2024-02-20T06:59:27.816Z,995.50
2024-02-20T07:00:27.981Z,995.49
2024-02-20T07:01:27.922Z,995.48
2024-02-20T07:02:27.854Z,995.48
2024-02-20T07:03:27.829Z,995.51
2024-02-20T07:04:27.970Z,995.55
2024-02-20T07:05:28.002Z,995.56
2024-02-20T07:06:27.940Z,995.57
2024-02-20T07:07:27.743Z,995.57
2024-02-20T07:08:27.751Z,995.58
2024-02-20T07:09:27.752Z,995.60
2024-02-20T07:10:27.807Z,995.61
2024-02-20T07:11:28.159Z,995.62
2024-02-20T07:12:27.725Z,995.66
2024-02-20T07:13:27.717Z,995.68
2024-02-20T07:14:27.689Z,995.68
2024-02-20T07:15:27.649Z,995.70
2024-02-20T07:16:27.669Z,995.70
2024-02-20T07:17:28.562Z,995.70
2024-02-20T07:18:27.736Z,995.71
2024-02-20T07:19:27.684Z,995.71
2024-02-20T07:20:27.770Z,995.74
2024-02-20T07:21:27.593Z,995.74
2024-02-20T07:22:27.592Z,995.75
2024-02-20T07:23:27.556Z,995.75
2024-02-20T07:24:27.590Z,995.75
2024-02-20T07:25:27.582Z,995.75
2024-02-20T07:26:27.533Z,995.76
2024-02-20T07:27:27.511Z,995.77
2024-02-20T07:28:27.558Z,995.79
2024-02-20T07:29:27.506Z,995.79
2024-02-20T07:30:27.555Z,995.80
2024-02-20T07:31:27.512Z,995.81
2024-02-20T07:32:27.528Z,995.79
2024-02-20T07:33:34.975Z,995.79
2024-02-20T07:34:27.610Z,995.78
2024-02-20T07:35:27.642Z,995.75
2024-02-20T07:36:27.481Z,995.73
2024-02-20T07:37:27.438Z,995.73
2024-02-20T07:38:27.424Z,995.73
2024-02-20T07:39:27.406Z,995.73
2024-02-20T07:40:27.460Z,995.75
2024-02-20T07:41:27.374Z,995.76
2024-02-20T07:42:27.429Z,995.74
2024-02-20T07:43:27.388Z,995.74
2024-02-20T07:44:27.344Z,995.73
2024-02-20T07:45:27.322Z,995.73
2024-02-20T07:46:27.352Z,995.73
2024-02-20T07:47:27.382Z,995.74
2024-02-20T07:48:27.389Z,995.74
2024-02-20T07:49:27.478Z,995.73
2024-02-20T07:50:27.502Z,995.73
2024-02-20T07:51:27.253Z,995.72
2024-02-20T07:52:27.281Z,995.73
2024-02-20T07:53:27.242Z,995.74
2024-02-20T07:54:27.237Z,995.70
2024-02-20T07:55:27.329Z,995.70
2024-02-20T07:56:27.219Z,995.69
2024-02-20T07:57:27.293Z,995.69
2024-02-20T07:58:34.354Z,995.68
2024-02-20T07:59:27.177Z,995.69
2024-02-20T08:00:27.196Z,995.69
2024-02-20T08:01:27.357Z,995.67
2024-02-20T08:02:27.302Z,995.68
2024-02-20T08:03:27.130Z,995.69
2024-02-20T08:04:27.275Z,995.70
2024-02-20T08:05:27.357Z,995.71
2024-02-20T08:06:27.163Z,995.71
2024-02-20T08:07:27.143Z,995.72
2024-02-20T08:08:27.090Z,995.71
2024-02-20T08:09:27.077Z,995.71
2024-02-20T08:10:27.114Z,995.71
2024-02-20T08:11:27.131Z,995.71
2024-02-20T08:12:27.040Z,995.71
2024-02-20T08:13:27.094Z,995.70
2024-02-20T08:14:27.056Z,995.68
2024-02-20T08:15:26.998Z,995.67
2024-02-20T08:16:27.063Z,995.66
2024-02-20T08:17:27.027Z,995.68
2024-02-20T08:18:27.040Z,995.68
2024-02-20T08:19:27.146Z,995.66
2024-02-20T08:20:27.050Z,995.67
2024-02-20T08:21:26.923Z,995.68
2024-02-20T08:22:26.990Z,995.68
2024-02-20T08:23:26.908Z,995.67
2024-02-20T08:24:26.971Z,995.67
2024-02-20T08:25:26.930Z,995.71
2024-02-20T08:26:26.905Z,995.67
2024-02-20T08:27:26.886Z,995.65
2024-02-20T08:28:26.918Z,995.65
2024-02-20T08:29:26.854Z,995.65
2024-02-20T08:30:26.851Z,995.66
2024-02-20T08:31:26.934Z,995.66
2024-02-20T08:32:26.818Z,995.68
2024-02-20T08:33:26.910Z,995.71
2024-02-20T08:34:26.826Z,995.72
2024-02-20T08:35:26.856Z,995.71
2024-02-20T08:36:26.794Z,995.72
2024-02-20T08:37:26.854Z,995.71
2024-02-20T08:38:26.748Z,995.74
2024-02-20T08:39:26.849Z,995.71
2024-02-20T08:40:26.760Z,995.73
2024-02-20T08:41:26.725Z,995.72
2024-02-20T08:42:26.719Z,995.72
2024-02-20T08:43:26.782Z,995.73
2024-02-20T08:44:26.773Z,995.73
2024-02-20T08:45:26.730Z,995.72
2024-02-20T08:46:26.714Z,995.72
2024-02-20T08:47:26.699Z,995.71
2024-02-20T08:48:26.736Z,995.72
2024-02-20T08:49:31.605Z,995.71
2024-02-20T08:50:26.667Z,995.75
2024-02-20T08:51:26.633Z,995.72
2024-02-20T08:52:26.641Z,995.80
2024-02-20T08:53:26.591Z,995.77
2024-02-20T08:54:26.581Z,995.77
2024-02-20T08:55:26.640Z,995.75
2024-02-20T08:56:26.548Z,995.79
2024-02-20T08:57:26.590Z,995.78
2024-02-20T08:58:26.716Z,995.80
2024-02-20T08:59:26.570Z,995.82
2024-02-20T09:00:26.501Z,995.86
2024-02-20T09:01:26.812Z,995.82
2024-02-20T09:02:26.653Z,995.85
2024-02-20T09:03:26.485Z,995.84
2024-02-20T09:04:26.578Z,995.89
2024-02-20T09:05:26.621Z,995.87
2024-02-20T09:06:26.466Z,995.87
2024-02-20T09:07:26.544Z,995.88
2024-02-20T09:08:26.424Z,995.84
2024-02-20T09:09:26.422Z,995.84
2024-02-20T09:10:26.445Z,995.85
2024-02-20T09:11:26.513Z,995.83
2024-02-20T09:12:26.391Z,995.88
2024-02-20T09:13:26.399Z,995.86
2024-02-20T09:14:26.367Z,995.92
2024-02-20T09:15:26.383Z,995.82
2024-02-20T09:16:26.448Z,995.84
2024-02-20T09:17:26.328Z,995.81
2024-02-20T09:18:26.362Z,995.85
2024-02-20T09:19:26.457Z,995.80
2024-02-20T09:20:26.383Z,995.83
2024-02-20T09:21:26.289Z,995.81
2024-02-20T09:22:26.332Z,995.83
2024-02-20T09:23:26.271Z,995.84
2024-02-20T09:24:26.239Z,995.85
2024-02-20T09:25:26.272Z,995.84
2024-02-20T09:26:26.219Z,995.87
2024-02-20T09:27:26.233Z,995.90
2024-02-20T09:28:26.262Z,995.99
2024-02-20T09:29:26.219Z,995.94
2024-02-20T09:30:26.196Z,995.91
2024-02-20T09:31:26.214Z,995.91
2024-02-20T09:32:26.178Z,995.92
2024-02-20T09:33:26.331Z,995.92
2024-02-20T09:34:26.281Z,995.95
2024-02-20T09:35:26.151Z,995.94
2024-02-20T09:36:26.143Z,995.94
2024-02-20T09:37:26.167Z,995.97
2024-02-20T09:38:26.112Z,995.97
2024-02-20T09:39:26.123Z,995.98
2024-02-20T09:40:26.101Z,996.01
2024-02-20T09:41:26.081Z,996.02
2024-02-20T09:42:26.104Z,996.06
2024-02-20T09:43:26.173Z,995.99
2024-02-20T09:44:26.026Z,995.98
2024-02-20T09:45:26.072Z,996.03
2024-02-20T09:46:26.020Z,996.10
2024-02-20T09:47:26.017Z,996.01
2024-02-20T09:48:26.171Z,996.07
2024-02-20T09:49:26.086Z,996.03
2024-02-20T09:50:26.429Z,996.01
2024-02-20T09:51:26.028Z,995.97
2024-02-20T09:52:25.984Z,995.91
2024-02-20T09:53:25.943Z,995.91
2024-02-20T09:54:25.921Z,995.92
2024-02-20T09:55:26.406Z,995.89
2024-02-20T09:56:25.933Z,995.95
2024-02-20T09:57:25.925Z,995.92
2024-02-20T09:58:27.332Z,995.96
2024-02-20T09:59:25.886Z,995.97
2024-02-20T10:00:25.887Z,995.98
2024-02-20T10:01:25.920Z,995.98
2024-02-20T10:02:25.831Z,996.00
2024-02-20T10:03:25.867Z,996.03
2024-02-20T10:04:25.877Z,996.14
2024-02-20T10:05:25.977Z,996.09
2024-02-20T10:06:25.805Z,996.11
2024-02-20T10:07:25.806Z,996.11
2024-02-20T10:08:25.780Z,996.11
2024-02-20T10:09:25.817Z,996.02
2024-02-20T10:10:25.808Z,996.07
2024-02-20T10:11:25.809Z,996.04
2024-02-20T10:12:25.817Z,996.02
2024-02-20T10:13:25.739Z,996.07
2024-02-20T10:14:25.729Z,996.09
2024-02-20T10:15:25.748Z,996.07
2024-02-20T10:16:25.752Z,996.02
2024-02-20T10:17:25.776Z,996.03
2024-02-20T10:18:25.667Z,996.11
2024-02-20T10:19:25.743Z,996.01
2024-02-20T10:20:25.851Z,995.96
2024-02-20T10:21:25.692Z,996.04
2024-02-20T10:22:25.950Z,995.97
2024-02-20T10:23:25.619Z,995.97
2024-02-20T10:24:32.051Z,996.02
2024-02-20T10:25:25.656Z,995.98
2024-02-20T10:26:25.610Z,995.98
2024-02-20T10:27:25.588Z,995.99
2024-02-20T10:28:25.643Z,996.07
2024-02-20T10:29:25.570Z,995.95
2024-02-20T10:30:25.534Z,995.96
2024-02-20T10:31:25.574Z,995.90
2024-02-20T10:32:25.677Z,995.95
2024-02-20T10:33:25.698Z,995.91
2024-02-20T10:34:25.630Z,995.97
2024-02-20T10:35:25.636Z,995.93
2024-02-20T10:36:25.474Z,995.90
2024-02-20T10:37:25.565Z,995.91
2024-02-20T10:38:25.497Z,995.96
2024-02-20T10:39:25.490Z,995.94
2024-02-20T10:40:27.981Z,995.96
2024-02-20T10:41:25.453Z,995.94
2024-02-20T10:42:25.428Z,995.90
2024-02-20T10:43:25.449Z,995.95
2024-02-20T10:44:25.464Z,995.92
2024-02-20T10:45:25.391Z,995.95
2024-02-20T10:46:25.387Z,996.02
2024-02-20T10:47:25.484Z,996.01
2024-02-20T10:48:25.448Z,995.95
2024-02-20T10:49:26.162Z,995.93
2024-02-20T10:50:25.640Z,995.90
2024-02-20T10:51:25.340Z,995.89
2024-02-20T10:52:25.305Z,995.87
2024-02-20T10:53:25.305Z,995.87
2024-02-20T10:54:29.531Z,995.83
2024-02-20T10:55:32.407Z,995.84
2024-02-20T10:56:25.341Z,995.80
2024-02-20T10:57:25.343Z,995.86
2024-02-20T10:58:25.285Z,995.79
2024-02-20T10:59:25.245Z,995.76
2024-02-20T11:00:25.224Z,995.79
2024-02-20T11:01:25.467Z,995.81
2024-02-20T11:02:25.245Z,995.78
2024-02-20T11:03:25.194Z,995.75
2024-02-20T11:04:25.224Z,995.74
2024-02-20T11:05:25.483Z,995.75
2024-02-20T11:06:25.314Z,995.74
2024-02-20T11:07:25.260Z,995.77
2024-02-20T11:08:25.208Z,995.75
2024-02-20T11:09:25.219Z,995.78
2024-02-20T11:10:25.138Z,995.78
2024-02-20T11:11:25.281Z,995.77
2024-02-20T11:12:25.075Z,995.84
2024-02-20T11:13:25.094Z,995.82
2024-02-20T11:14:25.075Z,995.83
2024-02-20T11:15:25.072Z,995.80
2024-02-20T11:16:26.693Z,995.72
2024-02-20T11:17:29.491Z,995.67
2024-02-20T11:18:25.168Z,995.64
2024-02-20T11:19:25.222Z,995.66
2024-02-20T11:21:15.827Z,995.77
2024-02-20T11:22:16.826Z,995.66
2024-02-20T11:23:16.824Z,995.65
2024-02-20T11:24:17.875Z,995.63
2024-02-20T11:25:16.828Z,995.63
2024-02-20T11:26:16.830Z,995.65
2024-02-20T11:27:16.753Z,995.72
2024-02-20T11:28:17.869Z,995.66
2024-02-20T11:29:16.779Z,995.78
2024-02-20T11:30:16.719Z,995.67
2024-02-20T11:31:16.707Z,995.60
2024-02-20T11:32:16.706Z,995.62
2024-02-20T11:33:17.265Z,995.61
2024-02-20T11:34:16.831Z,995.60
2024-02-20T11:35:16.827Z,995.57
2024-02-20T11:36:16.636Z,995.56
2024-02-20T11:37:16.687Z,995.54
2024-02-20T11:38:16.661Z,995.56
2024-02-20T11:39:16.635Z,995.47
2024-02-20T11:40:16.620Z,995.67
2024-02-20T11:41:16.626Z,995.52
2024-02-20T11:42:16.594Z,995.50
2024-02-20T11:43:16.618Z,995.47
2024-02-20T11:44:16.557Z,995.47
2024-02-20T11:45:16.558Z,995.48
2024-02-20T11:46:16.589Z,995.47
2024-02-20T11:47:16.545Z,995.51
2024-02-20T11:48:16.596Z,995.45
2024-02-20T11:49:16.547Z,995.45
2024-02-20T11:50:16.530Z,995.51
2024-02-20T11:51:16.500Z,995.50
2024-02-20T11:52:16.668Z,995.52
2024-02-20T11:53:16.929Z,995.57
2024-02-20T11:54:16.447Z,995.49
2024-02-20T11:55:16.487Z,995.50
2024-02-20T11:56:16.434Z,995.52
2024-02-20T11:57:16.444Z,995.53
2024-02-20T11:58:16.467Z,995.48
2024-02-20T11:59:16.416Z,995.43
2024-02-20T12:00:16.376Z,995.59
2024-02-20T12:01:16.616Z,995.47
2024-02-20T12:02:16.403Z,995.43
2024-02-20T12:03:16.379Z,995.39
2024-02-20T12:04:16.483Z,995.39
2024-02-20T12:05:16.416Z,995.36
2024-02-20T12:06:16.332Z,995.37
2024-02-20T12:07:16.385Z,995.31
2024-02-20T12:08:16.508Z,995.35
2024-02-20T12:09:16.308Z,995.34
2024-02-20T12:10:16.324Z,995.34
2024-02-20T12:11:16.354Z,995.30
2024-02-20T12:12:16.256Z,995.31
2024-02-20T12:13:16.260Z,995.31
2024-02-20T12:14:16.269Z,995.25
2024-02-20T12:15:16.256Z,995.30
2024-02-20T12:16:16.233Z,995.35
2024-02-20T12:17:16.208Z,995.30
2024-02-20T12:18:16.281Z,995.29
2024-02-20T12:19:25.640Z,995.29
2024-02-20T12:20:16.327Z,995.22
2024-02-20T12:21:16.185Z,995.20
2024-02-20T12:22:16.190Z,995.24
2024-02-20T12:23:16.161Z,995.22
2024-02-20T12:24:16.119Z,995.21
2024-02-20T12:25:16.203Z,995.20
2024-02-20T12:26:16.127Z,995.16
2024-02-20T12:27:16.109Z,995.13
2024-02-20T12:28:16.126Z,995.11
2024-02-20T12:29:16.082Z,995.13